createdAt,value
2018-04-15T00:01:53.552Z,72.69
2018-04-15T00:04:21.123Z,73.60
2018-04-15T00:06:48.729Z,74.69
2018-04-15T00:09:16.320Z,74.04
2018-04-15T00:11:43.849Z,74.00
2018-04-15T00:14:12.160Z,73.99
2018-04-15T00:16:39.683Z,73.95
2018-04-15T00:19:07.713Z,74.33
2018-04-15T00:21:35.249Z,74.70
2018-04-15T00:24:03.209Z,75.46
2018-04-15T00:26:30.761Z,75.79
2018-04-15T00:28:58.594Z,76.62
2018-04-15T00:31:26.185Z,76.22
2018-04-15T00:33:53.754Z,76.54
2018-04-15T00:36:21.307Z,76.92
2018-04-15T00:38:48.861Z,77.52
2018-04-15T00:41:16.424Z,78.23
2018-04-15T00:43:43.976Z,78.59
2018-04-15T00:46:11.545Z,78.02
2018-04-15T00:48:39.091Z,78.94
2018-04-15T00:51:06.653Z,79.32
2018-04-15T00:53:45.843Z,79.71
2018-04-15T00:56:13.718Z,79.98
2018-04-15T00:58:41.267Z,80.01
2018-04-15T01:01:09.278Z,80.79
2018-04-15T01:03:36.868Z,80.27
2018-04-15T01:06:04.441Z,80.84
2018-04-15T01:08:32.004Z,81.17
2018-04-15T01:10:59.547Z,81.57
2018-04-15T01:13:27.115Z,81.87
2018-04-15T01:15:54.651Z,81.84
2018-04-15T01:18:22.228Z,81.65
2018-04-15T01:20:49.794Z,81.98
2018-04-15T01:23:17.347Z,82.10
2018-04-15T01:25:44.899Z,82.46
2018-04-15T01:28:12.465Z,82.58
2018-04-15T01:30:39.987Z,82.90
2018-04-15T01:33:07.575Z,82.99
2018-04-15T01:35:35.122Z,82.94
2018-04-15T01:38:02.716Z,83.27
2018-04-15T01:40:30.260Z,84.29
2018-04-15T01:42:57.835Z,84.35
2018-04-15T01:45:25.364Z,84.25
2018-04-15T01:47:52.996Z,84.26
2018-04-15T01:50:20.531Z,84.54
2018-04-15T01:52:48.647Z,84.93
2018-04-15T01:55:16.209Z,84.95
2018-04-15T01:57:43.773Z,84.87
2018-04-15T02:00:11.325Z,84.76
2018-04-15T02:02:39.472Z,85.15
2018-04-15T02:05:07.009Z,85.24
2018-04-15T02:07:34.910Z,85.13
2018-04-15T02:10:02.510Z,85.25
2018-04-15T02:12:30.358Z,85.89
2018-04-15T02:14:57.933Z,85.75
2018-04-15T02:17:25.515Z,85.92
2018-04-15T02:19:53.104Z,86.45
2018-04-15T02:22:20.677Z,86.21
2018-04-15T02:24:48.235Z,86.25
2018-04-15T02:27:15.791Z,86.21
2018-04-15T02:29:43.381Z,86.39
2018-04-15T02:32:10.962Z,86.91
2018-04-15T02:34:38.562Z,87.16
2018-04-15T02:37:06.105Z,86.94
2018-04-15T02:39:33.688Z,86.56
2018-04-15T02:42:01.226Z,86.60
2018-04-15T02:44:28.800Z,86.67
2018-04-15T02:46:56.376Z,87.19
2018-04-15T02:49:24.491Z,87.49
2018-04-15T02:51:52.049Z,87.72
2018-04-15T02:54:19.652Z,87.76
2018-04-15T02:56:47.203Z,88.16
2018-04-15T02:59:15.311Z,88.54
2018-04-15T03:01:42.843Z,88.78
2018-04-15T03:04:10.906Z,88.43
2018-04-15T03:06:38.534Z,88.58
2018-04-15T03:09:06.319Z,88.85
2018-04-15T03:11:34.067Z,89.31
2018-04-15T03:14:01.645Z,89.04
2018-04-15T03:16:29.231Z,89.04
2018-04-15T03:18:56.777Z,89.54
2018-04-15T03:21:24.449Z,89.58
2018-04-15T03:23:52.315Z,89.81
2018-04-15T03:26:20.341Z,90.03
2018-04-15T03:28:47.882Z,90.58
2018-04-15T03:31:15.959Z,91.01
2018-04-15T03:33:43.518Z,91.12
2018-04-15T03:36:11.444Z,91.00
2018-04-15T03:38:39.135Z,91.17
2018-04-15T03:41:06.940Z,90.58
2018-04-15T03:43:34.547Z,90.90
2018-04-15T03:46:02.094Z,91.32
2018-04-15T03:48:29.684Z,90.96
2018-04-15T03:50:57.237Z,90.57
2018-04-15T03:53:24.868Z,90.66
2018-04-15T03:55:52.398Z,90.98
2018-04-15T03:58:19.978Z,90.86
2018-04-15T04:00:47.517Z,91.03
2018-04-15T04:03:15.093Z,91.03
2018-04-15T04:05:42.657Z,90.90
2018-04-15T04:08:10.267Z,90.62
2018-04-15T04:10:37.826Z,90.95
2018-04-15T04:13:05.468Z,91.23
2018-04-15T04:15:33.001Z,91.11
2018-04-15T04:18:12.967Z,91.15
2018-04-15T04:20:52.518Z,91.41
2018-04-15T04:23:31.988Z,91.16
2018-04-15T04:26:04.479Z,90.96
2018-04-15T04:28:32.444Z,90.74
2018-04-15T04:31:00.024Z,91.26
2018-04-15T04:33:27.728Z,91.36
2018-04-15T04:35:55.309Z,91.43
2018-04-15T04:38:22.845Z,91.32
2018-04-15T04:40:50.415Z,91.08
2018-04-15T04:43:17.959Z,91.27
2018-04-15T04:45:45.529Z,90.98
2018-04-15T04:48:13.064Z,91.06
2018-04-15T04:50:40.684Z,91.06
2018-04-15T04:53:08.222Z,91.37
2018-04-15T04:55:35.800Z,91.45
2018-04-15T04:58:03.387Z,91.61
2018-04-15T05:00:30.975Z,91.71
2018-04-15T05:02:58.569Z,91.75
2018-04-15T05:05:26.156Z,91.68
2018-04-15T05:07:53.684Z,91.85
2018-04-15T05:10:21.261Z,91.89
2018-04-15T05:12:48.853Z,91.81
2018-04-15T05:15:16.408Z,91.75
2018-04-15T05:17:43.959Z,91.72
2018-04-15T05:20:11.569Z,91.63
2018-04-15T05:22:39.115Z,91.77
2018-04-15T05:25:06.669Z,91.83
2018-04-15T05:27:34.251Z,91.84
2018-04-15T05:30:02.601Z,91.71
2018-04-15T05:32:30.146Z,91.66
2018-04-15T05:34:58.143Z,91.78
2018-04-15T05:37:25.712Z,91.94
2018-04-15T05:39:53.607Z,91.90
2018-04-15T05:42:21.160Z,91.95
2018-04-15T05:44:49.080Z,91.95
2018-04-15T05:47:16.653Z,92.00
2018-04-15T05:49:44.198Z,91.80
2018-04-15T05:52:11.783Z,91.83
2018-04-15T05:54:39.324Z,91.78
2018-04-15T05:57:06.895Z,91.64
2018-04-15T05:59:34.522Z,91.60
2018-04-15T06:02:02.099Z,91.53
2018-04-15T06:04:29.664Z,91.58
2018-04-15T06:06:57.280Z,91.52
2018-04-15T06:09:24.849Z,91.50
2018-04-15T06:11:52.520Z,91.32
2018-04-15T06:14:20.111Z,91.31
2018-04-15T06:16:48.310Z,91.40
2018-04-15T06:19:15.828Z,91.28
2018-04-15T06:21:43.399Z,91.49
2018-04-15T06:24:10.958Z,91.39
2018-04-15T06:26:38.530Z,91.30
2018-04-15T06:29:06.073Z,90.69
2018-04-15T06:31:34.242Z,90.85
2018-04-15T06:34:01.802Z,90.97
2018-04-15T06:36:29.982Z,90.91
2018-04-15T06:38:57.522Z,91.02
2018-04-15T06:41:25.068Z,90.53
2018-04-15T06:43:52.627Z,90.64
2018-04-15T06:46:20.179Z,90.27
2018-04-15T06:48:47.774Z,90.05
2018-04-15T06:51:15.300Z,90.24
2018-04-15T06:53:42.892Z,90.21
2018-04-15T06:56:10.481Z,89.96
2018-04-15T06:58:38.047Z,89.83
2018-04-15T07:01:05.597Z,89.34
2018-04-15T07:03:33.182Z,89.22
2018-04-15T07:06:00.724Z,89.83
2018-04-15T07:08:28.306Z,89.61
2018-04-15T07:10:55.864Z,89.91
2018-04-15T07:13:23.435Z,89.97
2018-04-15T07:15:50.978Z,90.09
2018-04-15T07:18:18.544Z,89.88
2018-04-15T07:20:46.102Z,89.99
2018-04-15T07:23:13.661Z,90.47
2018-04-15T07:25:41.232Z,90.19
2018-04-15T07:28:08.822Z,89.82
2018-04-15T07:30:36.392Z,89.66
2018-04-15T07:33:03.954Z,89.64
2018-04-15T07:35:31.510Z,88.62
2018-04-15T07:37:59.070Z,88.17
2018-04-15T07:40:26.637Z,88.26
2018-04-15T07:42:54.249Z,88.86
2018-04-15T07:45:21.830Z,88.60
2018-04-15T07:47:50.026Z,87.54
2018-04-15T07:50:17.560Z,85.52
2018-04-15T07:52:45.766Z,86.76
2018-04-15T07:55:13.405Z,87.63
2018-04-15T07:57:41.604Z,86.22
2018-04-15T08:00:09.235Z,85.74
2018-04-15T08:02:36.782Z,85.62
2018-04-15T08:05:04.370Z,86.99
2018-04-15T08:07:31.909Z,84.52
2018-04-15T08:10:19.484Z,84.11
2018-04-15T08:12:47.022Z,84.46
2018-04-15T08:15:14.613Z,83.94
2018-04-15T08:17:42.177Z,83.13
2018-04-15T08:20:09.820Z,82.35
2018-04-15T08:22:37.442Z,80.55
2018-04-15T08:25:05.006Z,80.19
2018-04-15T08:27:32.593Z,80.68
2018-04-15T08:30:00.199Z,80.59
2018-04-15T08:32:27.760Z,80.65
2018-04-15T08:34:55.358Z,78.49
2018-04-15T08:37:23.023Z,77.91
2018-04-15T08:39:51.278Z,77.45
2018-04-15T08:42:18.815Z,76.91
2018-04-15T08:44:46.967Z,75.67
2018-04-15T08:47:14.518Z,75.51
2018-04-15T08:49:42.775Z,76.27
2018-04-15T08:52:10.443Z,75.15
2018-04-15T08:54:38.075Z,75.02
2018-04-15T08:57:05.657Z,75.75
2018-04-15T08:59:33.211Z,74.73
2018-04-15T09:02:01.554Z,74.95
2018-04-15T09:04:29.114Z,74.99
2018-04-15T09:06:57.098Z,74.54
2018-04-15T09:09:24.635Z,75.42
2018-04-15T09:11:52.981Z,74.35
2018-04-15T09:14:20.541Z,73.00
2018-04-15T09:16:48.131Z,72.61
2018-04-15T09:19:19.248Z,72.70
2018-04-15T09:21:46.859Z,72.50
2018-04-15T09:24:14.414Z,72.60
2018-04-15T09:26:42.912Z,71.01
2018-04-15T09:29:30.451Z,70.92
2018-04-15T09:31:58.383Z,70.90
2018-04-15T09:34:25.944Z,71.02
2018-04-15T09:36:54.543Z,70.26
2018-04-15T09:39:22.993Z,70.27
2018-04-15T09:41:50.528Z,70.97
2018-04-15T09:44:18.523Z,70.07
2018-04-15T09:46:46.109Z,68.73
2018-04-15T09:49:14.439Z,67.52
2018-04-15T09:51:54.440Z,67.54
2018-04-15T09:54:46.548Z,68.27
2018-04-15T10:10:18.296Z,68.19
2018-04-15T10:12:52.661Z,65.76
2018-04-15T10:15:37.464Z,66.64
2018-04-15T10:27:50.126Z,64.19
2018-04-15T10:30:18.664Z,63.48
2018-04-15T10:32:46.222Z,63.91
2018-04-15T10:35:14.587Z,62.94
2018-04-15T10:37:42.526Z,63.33
2018-04-15T10:40:10.190Z,63.89
2018-04-15T10:42:38.567Z,63.02
2018-04-15T10:45:06.733Z,61.60
2018-04-15T10:47:34.875Z,60.21
2018-04-15T10:50:03.301Z,60.44
2018-04-15T10:52:30.835Z,59.28
2018-04-15T10:54:58.838Z,59.78
2018-04-15T10:57:26.425Z,60.45
2018-04-15T10:59:54.605Z,59.55
2018-04-15T11:02:22.295Z,58.94
2018-04-15T11:04:49.829Z,57.47
2018-04-15T11:07:18.172Z,58.30
2018-04-15T11:09:45.814Z,57.18
2018-04-15T11:12:14.200Z,58.08
2018-04-15T11:14:41.899Z,57.05
2018-04-15T11:17:09.438Z,57.45
2018-04-15T11:19:37.104Z,57.08
2018-04-15T11:22:04.654Z,56.65
2018-04-15T11:24:32.928Z,57.35
2018-04-15T11:27:00.495Z,55.71
2018-04-15T11:29:28.472Z,56.26
2018-04-15T11:31:55.996Z,54.88
2018-04-15T11:34:24.630Z,54.84
2018-04-15T11:36:52.998Z,53.71
2018-04-15T11:39:20.544Z,53.40
2018-04-15T11:41:48.857Z,53.77
2018-04-15T11:44:16.470Z,54.96
2018-04-15T11:46:44.300Z,54.09
2018-04-15T11:49:11.950Z,54.23
2018-04-15T11:51:39.568Z,54.12
2018-04-15T11:54:07.813Z,52.11
2018-04-15T11:56:35.346Z,52.27
2018-04-15T11:59:03.759Z,53.76
2018-04-15T12:01:31.336Z,53.22
2018-04-15T12:03:59.123Z,52.78
2018-04-15T12:06:26.748Z,51.34
2018-04-15T12:08:54.493Z,49.95
2018-04-15T12:11:22.143Z,47.66
2018-04-15T12:13:49.702Z,46.03
2018-04-15T12:16:18.117Z,43.92
2018-04-15T12:18:45.676Z,43.88
2018-04-15T12:21:13.786Z,42.60
2018-04-15T12:23:41.613Z,41.18
2018-04-15T12:26:09.755Z,43.02
2018-04-15T12:28:37.305Z,42.23
2018-04-15T12:31:05.841Z,39.23
2018-04-15T12:33:33.442Z,37.96
2018-04-15T12:36:00.984Z,40.06
2018-04-15T12:38:28.512Z,38.58
2018-04-15T12:40:56.077Z,38.79
2018-04-15T12:43:24.458Z,36.72
2018-04-15T12:45:51.988Z,37.82
2018-04-15T12:48:20.049Z,36.28
2018-04-15T12:50:47.600Z,37.50
2018-04-15T12:53:15.816Z,36.35
2018-04-15T12:55:43.464Z,35.01
2018-04-15T12:58:11.036Z,35.64
2018-04-15T13:00:39.521Z,36.41
2018-04-15T13:03:07.052Z,37.61
2018-04-15T13:05:35.405Z,38.37
2018-04-15T13:08:02.987Z,39.62
2018-04-15T13:10:30.569Z,41.71
2018-04-15T13:12:58.234Z,40.14
2018-04-15T13:15:25.787Z,39.05
2018-04-15T13:17:53.390Z,37.86
2018-04-15T13:20:20.920Z,40.94
2018-04-15T13:22:48.563Z,39.11
2018-04-15T13:25:16.199Z,40.38
2018-04-15T13:27:44.321Z,40.95
2018-04-15T13:30:11.953Z,41.98
2018-04-15T13:32:40.047Z,40.79
2018-04-15T13:35:07.619Z,41.87
2018-04-15T13:37:35.764Z,41.98
2018-04-15T13:40:03.372Z,43.74
2018-04-15T13:42:44.717Z,44.07
2018-04-15T13:45:12.284Z,43.05
2018-04-15T13:47:40.555Z,42.40
2018-04-15T13:50:08.112Z,41.93
2018-04-15T13:52:35.882Z,41.58
2018-04-15T13:55:03.413Z,41.68
2018-04-15T13:57:30.934Z,41.48
2018-04-15T13:59:58.623Z,41.35
2018-04-15T14:02:26.273Z,41.75
2018-04-15T14:04:53.924Z,40.80
2018-04-15T14:07:21.459Z,41.01
2018-04-15T14:09:49.813Z,41.39
2018-04-15T14:12:17.370Z,41.94
2018-04-15T14:14:45.419Z,42.49
2018-04-15T14:17:13.021Z,42.01
2018-04-15T14:19:41.276Z,42.33
2018-04-15T14:22:08.979Z,43.64
2018-04-15T14:24:36.511Z,41.84
2018-04-15T14:27:04.118Z,40.99
2018-04-15T14:29:31.677Z,41.10
2018-04-15T14:31:59.999Z,40.34
2018-04-15T14:34:27.593Z,41.39
2018-04-15T14:36:55.722Z,41.02
2018-04-15T14:39:23.306Z,40.83
2018-04-15T14:41:51.496Z,40.11
2018-04-15T14:44:19.170Z,40.48
2018-04-15T14:46:46.716Z,40.27
2018-04-15T14:49:14.310Z,40.47
2018-04-15T14:51:42.107Z,40.61
2018-04-15T14:54:10.383Z,39.86
2018-04-15T14:56:37.954Z,40.42
2018-04-15T14:59:05.856Z,41.54
2018-04-15T15:01:38.281Z,42.63
2018-04-15T15:04:06.234Z,42.97
2018-04-15T15:06:33.886Z,42.90
2018-04-15T15:09:01.692Z,44.17
2018-04-15T15:11:29.322Z,41.80
2018-04-15T15:13:56.882Z,42.63
2018-04-15T15:16:24.507Z,43.41
2018-04-15T15:18:52.102Z,42.41
2018-04-15T15:21:20.337Z,42.39
2018-04-15T15:23:47.923Z,43.59
2018-04-15T15:26:16.053Z,42.94
2018-04-15T15:28:43.732Z,43.41
2018-04-15T15:31:11.958Z,44.37
2018-04-15T15:33:40.347Z,45.91
2018-04-15T15:36:08.304Z,44.08
2018-04-15T15:38:36.230Z,44.77
2018-04-15T15:41:03.802Z,46.28
2018-04-15T15:43:32.091Z,44.51
2018-04-15T15:46:00.374Z,44.17
2018-04-15T15:48:27.962Z,45.22
2018-04-15T15:50:56.058Z,45.62
2018-04-15T15:53:23.594Z,45.16
2018-04-15T15:55:51.523Z,46.44
2018-04-15T15:58:19.105Z,45.67
2018-04-15T16:00:47.019Z,45.94
2018-04-15T16:03:14.661Z,45.27
2018-04-15T16:05:42.204Z,46.44
2018-04-15T16:08:09.784Z,47.46
2018-04-15T16:10:37.335Z,45.30
2018-04-15T16:13:04.926Z,45.65
2018-04-15T16:15:32.471Z,46.24
2018-04-15T16:18:00.924Z,46.55
2018-04-15T16:20:28.560Z,47.10
2018-04-15T16:22:56.676Z,46.84
2018-04-15T16:25:24.316Z,46.87
2018-04-15T16:27:52.371Z,47.96
2018-04-15T16:30:19.976Z,47.23
2018-04-15T16:32:47.580Z,46.97
2018-04-15T16:35:16.052Z,49.34
2018-04-15T16:37:43.588Z,47.34
2018-04-15T16:40:11.499Z,46.93
2018-04-15T16:42:39.722Z,46.73
2018-04-15T16:45:08.109Z,47.00
2018-04-15T16:47:36.657Z,46.52
2018-04-15T16:50:04.867Z,47.88
2018-04-15T16:52:33.304Z,46.94
2018-04-15T16:55:02.133Z,49.25
2018-04-15T16:57:30.385Z,48.03
2018-04-15T16:59:58.639Z,48.13
2018-04-15T17:02:27.345Z,48.10
2018-04-15T17:04:56.307Z,48.46
2018-04-15T17:07:24.534Z,49.18
2018-04-15T17:09:53.429Z,48.90
2018-04-15T17:12:22.011Z,48.83
2018-04-15T17:14:51.207Z,48.84
2018-04-15T17:17:19.503Z,48.41
2018-04-15T17:19:47.826Z,48.46
2018-04-15T17:22:16.542Z,48.57
2018-04-15T17:24:44.744Z,49.61
2018-04-15T17:27:13.716Z,49.38
2018-04-15T17:29:42.222Z,50.03
2018-04-15T17:32:11.736Z,50.19
2018-04-15T17:34:39.870Z,50.15
2018-04-15T17:37:08.216Z,50.83
2018-04-15T17:39:36.778Z,50.82
2018-04-15T17:42:04.970Z,52.13
2018-04-15T17:44:33.248Z,51.64
2018-04-15T17:47:02.011Z,51.35
2018-04-15T17:49:30.188Z,52.38
2018-04-15T17:51:58.438Z,51.66
2018-04-15T17:54:27.115Z,52.44
2018-04-15T17:56:55.305Z,51.75
2018-04-15T17:59:23.555Z,52.37
2018-04-15T18:01:52.338Z,52.64
2018-04-15T18:04:20.554Z,52.35
2018-04-15T18:06:49.342Z,52.42
2018-04-15T18:09:18.011Z,52.74
2018-04-15T18:11:46.302Z,52.43
2018-04-15T18:14:14.519Z,52.89
2018-04-15T18:16:43.075Z,52.88
2018-04-15T18:19:11.301Z,53.26
2018-04-15T18:21:39.698Z,52.94
2018-04-15T18:24:08.479Z,52.97
2018-04-15T18:26:36.724Z,53.53
2018-04-15T18:29:04.935Z,52.94
2018-04-15T18:31:33.641Z,53.68
2018-04-15T18:34:01.856Z,53.56
2018-04-15T18:36:30.055Z,53.48
2018-04-15T18:38:58.863Z,54.11
2018-04-15T18:41:27.157Z,54.91
2018-04-15T18:43:55.335Z,54.59
2018-04-15T18:46:24.175Z,54.29
2018-04-15T18:48:52.881Z,54.48
2018-04-15T18:51:21.063Z,54.64
2018-04-15T18:53:49.263Z,54.60
2018-04-15T18:56:18.013Z,55.34
2018-04-15T18:58:46.190Z,55.62
2018-04-15T19:01:14.426Z,55.19
2018-04-15T19:03:43.187Z,55.64
2018-04-15T19:06:11.375Z,56.18
2018-04-15T19:08:40.168Z,56.54
2018-04-15T19:11:08.699Z,56.91
2018-04-15T19:13:36.911Z,57.29
2018-04-15T19:16:05.322Z,57.38
2018-04-15T19:18:33.761Z,57.52
2018-04-15T19:21:01.965Z,57.38
2018-04-15T19:23:30.258Z,57.69
2018-04-15T19:25:59.219Z,58.39
2018-04-15T19:28:27.673Z,58.07
2018-04-15T19:30:56.000Z,58.02
2018-04-15T19:33:24.700Z,57.95
2018-04-15T19:35:53.453Z,58.20
2018-04-15T19:38:21.688Z,58.28
2018-04-15T19:40:50.517Z,58.24
2018-04-15T19:43:19.093Z,58.31
2018-04-15T19:45:47.365Z,58.74
2018-04-15T19:48:15.650Z,58.60
2018-04-15T19:50:44.291Z,59.05
2018-04-15T19:53:12.570Z,59.22
2018-04-15T19:55:40.778Z,59.34
2018-04-15T19:58:09.610Z,59.47
2018-04-15T20:00:37.849Z,59.48
2018-04-15T20:03:06.021Z,59.62
2018-04-15T20:05:34.737Z,60.33
2018-04-15T20:08:03.060Z,60.31
2018-04-15T20:10:31.253Z,59.94
2018-04-15T20:12:59.862Z,60.24
2018-04-15T20:15:28.096Z,59.89
2018-04-15T20:17:56.311Z,59.61
2018-04-15T20:20:25.030Z,60.56
2018-04-15T20:22:53.254Z,60.00
2018-04-15T20:25:21.432Z,61.01
2018-04-15T20:27:50.093Z,59.58
2018-04-15T20:30:18.321Z,59.94
2018-04-15T20:32:46.526Z,59.89
2018-04-15T20:35:15.145Z,61.04
2018-04-15T20:37:43.391Z,60.51
2018-04-15T20:40:11.577Z,60.14
2018-04-15T20:42:40.211Z,60.15
2018-04-15T20:45:08.424Z,60.27
2018-04-15T20:47:36.638Z,60.13
2018-04-15T20:50:05.329Z,60.19
2018-04-15T20:52:33.574Z,60.60
2018-04-15T20:55:01.782Z,60.62
2018-04-15T20:57:30.398Z,60.66
2018-04-15T20:59:58.663Z,61.23
2018-04-15T21:02:26.860Z,60.73
2018-04-15T21:04:55.391Z,60.38
2018-04-15T21:07:23.616Z,60.37
2018-04-15T21:09:51.839Z,60.42
2018-04-15T21:12:20.583Z,60.58
2018-04-15T21:14:48.815Z,60.95
2018-04-15T21:17:17.000Z,61.54
2018-04-15T21:19:45.727Z,61.47
2018-04-15T21:22:13.923Z,62.10
2018-04-15T21:24:42.137Z,62.43
2018-04-15T21:27:10.917Z,62.99
2018-04-15T21:29:39.752Z,63.01
2018-04-15T21:32:07.947Z,62.82
2018-04-15T21:34:36.174Z,63.05
2018-04-15T21:37:04.906Z,63.29
2018-04-15T21:39:33.093Z,63.43
2018-04-15T21:42:01.310Z,63.53
2018-04-15T21:44:30.040Z,63.47
2018-04-15T21:46:58.218Z,63.89
2018-04-15T21:49:26.433Z,63.87
2018-04-15T21:51:55.116Z,63.97
2018-04-15T21:54:23.331Z,64.67
2018-04-15T21:56:51.525Z,64.79
2018-04-15T21:59:20.325Z,64.75
2018-04-15T22:01:48.510Z,64.94
2018-04-15T22:04:16.715Z,64.81
2018-04-15T22:06:45.421Z,65.11
2018-04-15T22:09:13.619Z,65.11
2018-04-15T22:11:53.696Z,65.59
2018-04-15T22:14:22.267Z,65.49
2018-04-15T22:16:50.572Z,65.60
2018-04-15T22:19:18.751Z,65.58
2018-04-15T22:21:46.951Z,65.62
2018-04-15T22:24:15.723Z,66.08
2018-04-15T22:26:43.923Z,66.45
2018-04-15T22:29:12.115Z,66.60
2018-04-15T22:31:40.737Z,66.62
2018-04-15T22:34:09.061Z,67.26
2018-04-15T22:36:37.268Z,67.04
2018-04-15T22:39:05.913Z,67.17
2018-04-15T22:41:34.100Z,67.52
2018-04-15T22:44:02.321Z,67.32
2018-04-15T22:46:30.960Z,67.42
2018-04-15T22:48:59.158Z,67.74
2018-04-15T22:51:27.344Z,67.74
2018-04-15T22:53:56.101Z,68.05
2018-04-15T22:56:24.317Z,68.03
2018-04-15T22:58:53.088Z,67.96
2018-04-15T23:01:21.707Z,68.29
2018-04-15T23:03:49.935Z,68.61
2018-04-15T23:06:18.175Z,68.72
2018-04-15T23:08:46.847Z,68.69
2018-04-15T23:11:15.045Z,68.90
2018-04-15T23:13:43.224Z,69.00
2018-04-15T23:16:11.731Z,69.10
2018-04-15T23:18:39.936Z,69.28
2018-04-15T23:21:08.407Z,69.24
2018-04-15T23:23:37.116Z,69.56
2018-04-15T23:26:05.589Z,69.73
2018-04-15T23:28:33.868Z,69.68
2018-04-15T23:31:02.554Z,70.02
2018-04-15T23:33:30.777Z,70.01
2018-04-15T23:35:58.955Z,70.05
2018-04-15T23:38:27.473Z,70.31
2018-04-15T23:40:55.699Z,70.32
2018-04-15T23:43:23.901Z,70.58
2018-04-15T23:45:53.112Z,70.57
2018-04-15T23:48:21.739Z,70.43
2018-04-15T23:50:49.953Z,70.53
2018-04-15T23:53:18.155Z,70.47
2018-04-15T23:55:46.785Z,70.35
2018-04-15T23:58:15.428Z,70.07
